Segou, Mali
Current Conditions -  °F | °C
As of 7:00 PM on Thursday 23 Oct 2014 (Local Time) from GABS Reporting Station
Broken Clouds Broken Clouds  
Wind Chill: 86°   Ceiling: 23000
Heat Index: 87°   Visibility: 6mi
Dew Point: 64°   Wind: 0mph
Humidity: 48%   Direction: NA
Pressure: 29.88"   Gusts: NA
Location:  13.44°N, 6.26°W
Report Text: GABS 231900Z 00000KT 9999 FEW023 BKN230 30/18 Q1012 NOSIG
Loading
Personal Weather Stations






























Interactive Weather Map
Tropical Storm Tracking
New forecast layout! Learn more

10-Day Weather Forecast

Advertisements
Track Severe Weather on mobile